Rotselaar, Belgium
Current Conditions -  °F | °C
As of 12:20 PM on Friday 24 Oct 2014 (Local Time) from EBBR Reporting Station
Broken Clouds Broken Clouds  
Wind Chill: 12°   Ceiling: 4200
Heat Index: 12°   Visibility: 6mi
Dew Point:   Wind: 12mph
Humidity: 82%   Direction: 200°SSW
Pressure: 30.09"   Gusts: NA
Location:  50.95°N, 4.72°E
Report Text: EBBR 241020Z 20010KT 9999 SCT020 BKN042 12/09 Q1019 NOSIG
Loading
Personal Weather Stations






























Interactive Weather Map
Tropical Storm Tracking
New forecast layout! Learn more

10-Day Weather Forecast

Advertisements
Track Severe Weather on mobile